Time;durP1;ratioP1;P1;durP2;ratioP2;P2;SDS_P1;SDS_P2;PMS_P1;PMS_P2;Temp;Humidity;BMP_temperature;BMP_pressure;BME280_temperature;BME280_humidity;BME280_pressure;Samples;Min_cycle;Max_cycle;Signal;HPM_P1;HPM_P2
2023/12/30 00:00:54;;;;;;;7.85;4.13;;;14.40;99.90;;;;;;4592990;19;20074;-77
2023/12/30 00:02:46;;;;;;;6.55;3.90;;;14.40;99.90;;;;;;4592947;19;20010;-76
2023/12/30 00:04:20;;;;;;;7.68;4.50;;;14.40;99.90;;;;;;4591569;19;20030;-76
2023/12/30 00:05:55;;;;;;;7.43;4.30;;;14.40;99.90;;;;;;4591505;19;20318;-76
2023/12/30 00:07:29;;;;;;;7.43;4.22;;;14.40;99.90;;;;;;4591607;19;20040;-77
2023/12/30 00:09:03;;;;;;;7.53;5.05;;;14.40;99.90;;;;;;4592525;19;20005;-77
2023/12/30 00:10:40;;;;;;;7.85;4.65;;;14.40;99.90;;;;;;4591816;19;20291;-76
2023/12/30 00:12:15;;;;;;;9.20;4.82;;;14.40;99.90;;;;;;4592753;19;20318;-77
2023/12/30 00:13:50;;;;;;;8.35;4.85;;;14.40;99.90;;;;;;4592741;19;20002;-77
2023/12/30 00:15:25;;;;;;;7.72;5.18;;;14.40;99.90;;;;;;4591681;19;20013;-76
2023/12/30 00:16:59;;;;;;;8.82;5.65;;;14.40;99.90;;;;;;4592641;19;19999;-76
2023/12/30 00:18:37;;;;;;;8.52;5.90;;;14.40;99.90;;;;;;4592553;19;20081;-77
2023/12/30 00:20:12;;;;;;;7.95;5.03;;;14.40;99.90;;;;;;4592972;19;20006;-76
2023/12/30 00:21:46;;;;;;;9.32;5.53;;;14.40;99.90;;;;;;4592606;19;20007;-76
2023/12/30 00:23:20;;;;;;;8.57;5.78;;;14.40;99.90;;;;;;4592565;19;20006;-77
2023/12/30 00:24:56;;;;;;;7.60;5.57;;;14.40;99.90;;;;;;4592857;19;20033;-76
2023/12/30 00:26:30;;;;;;;10.88;5.55;;;14.40;99.90;;;;;;4591704;19;20039;-77
2023/12/30 00:28:04;;;;;;;7.70;4.57;;;14.40;99.90;;;;;;4592511;19;20026;-77
2023/12/30 00:29:40;;;;;;;7.97;4.90;;;14.40;99.90;;;;;;4592538;19;20456;-77
2023/12/30 00:31:41;;;;;;;7.88;4.82;;;14.40;99.90;;;;;;4591178;19;20002;-77
2023/12/30 00:33:17;;;;;;;9.25;5.03;;;14.40;99.90;;;;;;4590293;19;20003;-76
2023/12/30 00:34:50;;;;;;;8.02;5.13;;;14.40;99.90;;;;;;4589721;19;20010;-77
2023/12/30 00:36:29;;;;;;;7.20;5.28;;;14.40;99.90;;;;;;4589065;19;20499;-76
2023/12/30 00:38:05;;;;;;;8.35;4.97;;;14.40;99.90;;;;;;4590070;19;20325;-77
2023/12/30 00:39:41;;;;;;;7.45;4.47;;;14.30;99.90;;;;;;4590038;19;20003;-76
2023/12/30 00:41:16;;;;;;;7.35;4.75;;;14.30;99.90;;;;;;4589151;19;20011;-77
2023/12/30 00:42:51;;;;;;;8.40;4.95;;;14.30;99.90;;;;;;4590298;19;20010;-76
2023/12/30 00:44:25;;;;;;;7.88;4.80;;;14.40;99.90;;;;;;4589877;19;20006;-77
2023/12/30 00:45:59;;;;;;;7.10;4.47;;;14.30;99.90;;;;;;4589119;19;20304;-77
2023/12/30 00:47:35;;;;;;;6.45;4.10;;;14.30;99.90;;;;;;4589928;19;20070;-76
2023/12/30 00:49:15;;;;;;;6.93;4.20;;;14.30;99.90;;;;;;4590089;19;20446;-76
2023/12/30 00:50:50;;;;;;;7.93;3.95;;;14.30;99.90;;;;;;4590096;19;20036;-77
2023/12/30 00:52:25;;;;;;;6.55;3.90;;;14.30;99.90;;;;;;4590138;19;20013;-77
2023/12/30 00:53:59;;;;;;;7.63;4.13;;;14.40;99.90;;;;;;4589743;19;20036;-76
2023/12/30 00:55:33;;;;;;;8.90;5.32;;;14.30;99.90;;;;;;4588564;19;20006;-77
2023/12/30 00:57:08;;;;;;;7.18;4.78;;;14.30;99.90;;;;;;4589947;19;20022;-76
2023/12/30 00:58:43;;;;;;;8.00;4.95;;;14.40;99.90;;;;;;4589678;19;20006;-77
2023/12/30 01:17:39;;;;;;;6.95;3.92;;;14.40;99.90;;;;;;4574070;19;20018;-78
2023/12/30 01:19:15;;;;;;;5.60;2.92;;;14.30;99.90;;;;;;4591680;19;20010;-77
2023/12/30 01:20:50;;;;;;;7.38;3.55;;;14.30;99.90;;;;;;4591753;19;20508;-78
2023/12/30 01:22:24;;;;;;;6.25;3.47;;;14.30;99.90;;;;;;4590555;19;20345;-77
2023/12/30 01:24:00;;;;;;;8.05;4.55;;;14.30;99.90;;;;;;4591346;19;20029;-77
2023/12/30 01:25:37;;;;;;;6.55;3.67;;;14.30;99.90;;;;;;4591471;19;20456;-78
2023/12/30 01:27:13;;;;;;;6.78;3.58;;;14.30;99.90;;;;;;4590006;19;20007;-77
2023/12/30 01:28:50;;;;;;;4.95;2.80;;;14.30;99.90;;;;;;4591459;19;20009;-78
2023/12/30 01:30:24;;;;;;;4.53;2.78;;;14.30;99.90;;;;;;4591788;19;20294;-78
2023/12/30 01:31:58;;;;;;;6.13;3.28;;;14.40;99.90;;;;;;4591386;19;20010;-77
2023/12/30 01:33:35;;;;;;;4.80;2.78;;;14.30;99.90;;;;;;4591438;19;20007;-77
2023/12/30 01:35:10;;;;;;;4.47;2.85;;;14.40;99.90;;;;;;4590863;19;20299;-78
2023/12/30 01:36:44;;;;;;;6.07;3.50;;;14.30;99.90;;;;;;4591170;19;20007;-77
2023/12/30 01:38:20;;;;;;;5.85;3.20;;;14.30;99.90;;;;;;4591694;19;20421;-78
2023/12/30 01:39:53;;;;;;;6.97;4.13;;;14.30;99.90;;;;;;4591376;19;20001;-78
2023/12/30 01:41:28;;;;;;;5.72;3.22;;;14.40;99.90;;;;;;4591189;19;20010;-77
2023/12/30 01:43:05;;;;;;;6.72;3.90;;;14.40;99.90;;;;;;4591564;19;20014;-78
2023/12/30 01:44:40;;;;;;;8.05;3.95;;;14.40;99.90;;;;;;4591318;19;20011;-78
2023/12/30 01:46:14;;;;;;;6.90;3.80;;;14.40;99.90;;;;;;4591206;19;19998;-77
2023/12/30 01:47:49;;;;;;;6.82;3.88;;;14.30;99.90;;;;;;4590318;19;19998;-77
2023/12/30 01:49:23;;;;;;;5.60;3.58;;;14.40;99.90;;;;;;4591213;19;20009;-78
2023/12/30 01:51:01;;;;;;;6.20;3.72;;;14.40;99.90;;;;;;4589699;19;20065;-78
2023/12/30 01:52:37;;;;;;;7.13;3.33;;;14.40;99.90;;;;;;4591223;19;20105;-77
2023/12/30 01:54:10;;;;;;;7.07;3.92;;;14.40;99.90;;;;;;4595659;19;20318;-77
2023/12/30 01:55:47;;;;;;;6.35;3.72;;;14.40;99.90;;;;;;4593857;19;20074;-78
2023/12/30 01:57:23;;;;;;;5.25;2.85;;;14.40;99.90;;;;;;4594771;19;20006;-77
2023/12/30 01:58:57;;;;;;;5.10;3.35;;;14.40;99.90;;;;;;4595630;19;20470;-78
2023/12/30 02:00:31;;;;;;;5.00;3.03;;;14.40;99.90;;;;;;4595497;19;20007;-78
2023/12/30 02:02:06;;;;;;;5.57;3.33;;;14.40;99.90;;;;;;4595581;19;20015;-78
2023/12/30 02:03:40;;;;;;;4.35;2.83;;;14.40;99.90;;;;;;4595742;19;20009;-78
2023/12/30 02:05:14;;;;;;;5.38;3.45;;;14.40;99.90;;;;;;4595457;19;20010;-77
2023/12/30 02:06:49;;;;;;;7.07;3.67;;;14.40;99.90;;;;;;4595216;19;20007;-78
2023/12/30 02:08:23;;;;;;;4.78;3.10;;;14.40;99.90;;;;;;4595321;19;20013;-79
2023/12/30 02:09:58;;;;;;;5.88;3.95;;;14.30;99.90;;;;;;4595332;19;20062;-78
2023/12/30 02:11:34;;;;;;;6.95;3.92;;;14.40;99.90;;;;;;4595662;19;20307;-78
2023/12/30 02:13:08;;;;;;;5.25;3.55;;;14.40;99.90;;;;;;4595271;19;20006;-78
2023/12/30 02:14:43;;;;;;;5.78;3.28;;;14.40;99.90;;;;;;4594762;19;20002;-77
2023/12/30 02:16:20;;;;;;;5.57;3.28;;;14.30;99.90;;;;;;4593954;19;20090;-78
2023/12/30 02:17:56;;;;;;;5.30;2.70;;;14.40;99.90;;;;;;4593422;19;20018;-78
2023/12/30 02:19:33;;;;;;;5.28;2.90;;;14.40;99.90;;;;;;4593799;19;20033;-77
2023/12/30 02:21:08;;;;;;;6.13;3.33;;;14.30;99.90;;;;;;4595243;19;20286;-77
2023/12/30 02:22:44;;;;;;;4.43;2.40;;;14.30;99.90;;;;;;4595095;19;20025;-77
2023/12/30 02:24:19;;;;;;;5.40;3.20;;;14.30;99.90;;;;;;4595189;19;20002;-78
2023/12/30 02:25:54;;;;;;;5.95;3.30;;;14.40;99.90;;;;;;4594050;19;20011;-78
2023/12/30 02:27:28;;;;;;;6.78;3.38;;;14.40;99.90;;;;;;4593754;19;20003;-78
2023/12/30 02:29:05;;;;;;;4.88;3.08;;;14.30;99.90;;;;;;4595210;19;20021;-77
2023/12/30 02:30:40;;;;;;;4.65;2.63;;;14.40;99.90;;;;;;4595020;19;20062;-78
2023/12/30 02:32:16;;;;;;;4.35;2.63;;;14.40;99.90;;;;;;4594876;19;20054;-78
2023/12/30 02:33:53;;;;;;;6.40;3.00;;;14.40;99.90;;;;;;4595158;19;19999;-77
2023/12/30 02:35:28;;;;;;;5.88;3.08;;;14.30;99.90;;;;;;4593612;19;20007;-77
2023/12/30 02:37:02;;;;;;;4.35;2.63;;;14.30;99.90;;;;;;4594201;19;20078;-78
2023/12/30 02:38:37;;;;;;;5.07;3.30;;;14.30;99.90;;;;;;4594748;19;20021;-78
2023/12/30 02:40:12;;;;;;;5.03;2.95;;;14.30;99.90;;;;;;4594832;19;20024;-78
2023/12/30 02:41:46;;;;;;;4.30;2.60;;;14.40;99.90;;;;;;4594675;19;20418;-77
2023/12/30 02:43:20;;;;;;;4.65;2.40;;;14.40;99.90;;;;;;4594573;19;20032;-78
2023/12/30 02:44:55;;;;;;;5.57;3.30;;;14.40;99.90;;;;;;4594896;19;20007;-77
2023/12/30 02:46:31;;;;;;;5.30;2.75;;;14.40;99.90;;;;;;4593573;19;20057;-78
2023/12/30 02:48:07;;;;;;;5.75;2.30;;;14.40;99.90;;;;;;4591568;19;20033;-78
2023/12/30 02:49:45;;;;;;;4.97;2.70;;;14.30;99.90;;;;;;4594553;19;20066;-78
2023/12/30 02:51:22;;;;;;;3.50;1.90;;;14.30;99.90;;;;;;4593502;19;20002;-77
2023/12/30 02:52:56;;;;;;;3.92;2.35;;;14.40;99.90;;;;;;4594156;19;20003;-77
2023/12/30 02:54:31;;;;;;;4.38;2.45;;;14.30;99.90;;;;;;4594045;19;20082;-78
2023/12/30 02:56:06;;;;;;;4.57;2.30;;;14.30;99.90;;;;;;4594644;19;20012;-77
2023/12/30 02:57:41;;;;;;;4.72;2.40;;;14.30;99.90;;;;;;4593559;19;20002;-78
2023/12/30 02:59:16;;;;;;;4.95;2.20;;;14.30;99.90;;;;;;4594346;19;20031;-78
2023/12/30 03:00:51;;;;;;;5.55;2.13;;;14.30;99.90;;;;;;4592988;19;20009;-77
2023/12/30 03:02:25;;;;;;;3.05;1.80;;;14.30;99.90;;;;;;4594030;19;20358;-78
2023/12/30 03:04:01;;;;;;;3.67;2.33;;;14.30;99.90;;;;;;4592264;19;20462;-77
2023/12/30 03:05:35;;;;;;;3.65;2.03;;;14.40;99.90;;;;;;4593878;19;20011;-77
2023/12/30 03:07:09;;;;;;;4.18;2.35;;;14.40;99.90;;;;;;4593949;19;20076;-77
2023/12/30 03:08:44;;;;;;;3.47;1.85;;;14.50;99.90;;;;;;4594655;19;20002;-78
2023/12/30 03:10:20;;;;;;;3.25;2.03;;;14.50;99.90;;;;;;4594428;19;20443;-78
2023/12/30 03:11:54;;;;;;;3.75;2.10;;;14.60;99.90;;;;;;4594421;19;20030;-77
2023/12/30 03:13:29;;;;;;;3.10;1.73;;;14.60;99.90;;;;;;4594084;19;20003;-78
2023/12/30 03:15:04;;;;;;;3.88;1.98;;;14.60;99.90;;;;;;4593316;19;20021;-77
2023/12/30 03:16:39;;;;;;;2.83;1.42;;;14.60;99.90;;;;;;4593921;19;20321;-78
2023/12/30 03:18:15;;;;;;;2.72;1.75;;;14.60;99.90;;;;;;4594046;19;20074;-77
2023/12/30 03:19:49;;;;;;;4.68;2.13;;;14.70;99.90;;;;;;4593947;19;20054;-77
2023/12/30 03:21:23;;;;;;;4.07;2.00;;;14.70;99.90;;;;;;4593896;19;20069;-77
2023/12/30 03:22:58;;;;;;;2.90;1.70;;;14.70;99.90;;;;;;4593853;19;20002;-77
2023/12/30 03:24:32;;;;;;;4.30;2.13;;;14.60;99.90;;;;;;4594118;19;19998;-77
2023/12/30 03:26:07;;;;;;;3.58;1.83;;;14.60;99.90;;;;;;4594007;19;20436;-78
2023/12/30 03:27:44;;;;;;;2.45;1.48;;;14.70;99.90;;;;;;4591809;19;20409;-77
2023/12/30 03:29:18;;;;;;;3.85;1.80;;;14.70;99.90;;;;;;4592348;19;20003;-78
2023/12/30 03:30:53;;;;;;;2.85;1.92;;;14.70;99.90;;;;;;4593354;19;20455;-78
2023/12/30 03:32:29;;;;;;;4.72;2.08;;;14.70;99.90;;;;;;4593944;19;20413;-78
2023/12/30 03:34:03;;;;;;;3.47;2.05;;;14.70;99.90;;;;;;4592308;19;20056;-78
2023/12/30 03:35:37;;;;;;;3.28;1.23;;;14.80;99.90;;;;;;4592442;19;19994;-77
2023/12/30 03:37:12;;;;;;;1.85;0.88;;;14.80;99.90;;;;;;4593800;19;19998;-78
2023/12/30 03:38:52;;;;;;;2.08;1.23;;;14.80;99.90;;;;;;4593534;19;20436;-78
2023/12/30 03:40:26;;;;;;;1.52;0.80;;;14.80;99.90;;;;;;4592147;19;20021;-78
2023/12/30 03:42:02;;;;;;;2.60;0.80;;;14.80;99.90;;;;;;4593419;19;20102;-78
2023/12/30 03:43:37;;;;;;;1.65;0.70;;;14.80;99.90;;;;;;4592242;19;20380;-77
2023/12/30 03:45:11;;;;;;;1.85;0.80;;;14.70;99.90;;;;;;4593038;19;20450;-78
2023/12/30 03:46:46;;;;;;;1.65;0.75;;;14.70;99.90;;;;;;4591934;19;20006;-78
2023/12/30 03:48:20;;;;;;;2.05;0.95;;;14.70;99.90;;;;;;4593031;19;20009;-78
2023/12/30 03:49:54;;;;;;;1.42;0.70;;;14.70;99.90;;;;;;4593296;19;20009;-77
2023/12/30 03:51:29;;;;;;;2.55;1.30;;;14.70;99.90;;;;;;4593274;19;20020;-78
2023/12/30 03:53:04;;;;;;;2.33;0.85;;;14.70;99.90;;;;;;4593192;19;20004;-78
2023/12/30 03:54:38;;;;;;;2.63;1.33;;;14.70;99.90;;;;;;4591971;19;20475;-78
2023/12/30 03:56:14;;;;;;;3.50;2.03;;;14.70;99.90;;;;;;4593373;19;20011;-78
2023/12/30 03:57:49;;;;;;;4.38;2.03;;;14.70;99.90;;;;;;4592464;19;20019;-78
2023/12/30 03:59:23;;;;;;;4.82;2.45;;;14.70;99.90;;;;;;4593130;19;20429;-78
2023/12/30 04:00:58;;;;;;;2.90;1.48;;;14.70;99.90;;;;;;4593360;19;20019;-78
2023/12/30 04:02:33;;;;;;;5.43;3.28;;;14.70;99.90;;;;;;4593307;19;20006;-77
2023/12/30 04:04:08;;;;;;;4.95;2.95;;;14.70;99.90;;;;;;4593260;19;20382;-78
2023/12/30 04:05:44;;;;;;;4.60;2.05;;;14.80;99.90;;;;;;4593072;19;19999;-78
2023/12/30 04:07:18;;;;;;;2.75;1.38;;;14.80;99.90;;;;;;4592312;19;20006;-78
2023/12/30 04:08:51;;;;;;;3.83;2.08;;;14.70;99.90;;;;;;4592884;19;20421;-77
2023/12/30 04:10:27;;;;;;;2.67;1.55;;;14.80;99.90;;;;;;4592905;19;20006;-77
2023/12/30 04:12:01;;;;;;;5.85;3.22;;;14.80;99.90;;;;;;4592854;19;20003;-77
2023/12/30 04:13:35;;;;;;;4.00;2.25;;;14.80;99.90;;;;;;4593114;19;19994;-77
2023/12/30 04:15:11;;;;;;;2.97;1.27;;;14.80;99.90;;;;;;4591551;19;20006;-77
2023/12/30 04:16:47;;;;;;;3.03;1.50;;;14.80;99.90;;;;;;4591195;19;20418;-77
2023/12/30 04:18:22;;;;;;;2.97;1.30;;;14.80;99.90;;;;;;4592832;19;20017;-76
2023/12/30 04:19:57;;;;;;;1.27;0.77;;;14.80;99.90;;;;;;4592741;19;20007;-76
2023/12/30 04:21:31;;;;;;;1.33;0.63;;;14.90;99.90;;;;;;4592675;19;19998;-77
2023/12/30 04:23:05;;;;;;;2.33;1.00;;;14.90;99.90;;;;;;4592632;19;19998;-76
2023/12/30 04:24:40;;;;;;;1.48;0.70;;;14.90;99.90;;;;;;4592915;19;20209;-76
2023/12/30 04:26:14;;;;;;;1.10;0.90;;;14.90;99.90;;;;;;4591223;19;20052;-76
2023/12/30 04:27:49;;;;;;;1.55;0.80;;;14.90;99.90;;;;;;4591590;19;19999;-77
2023/12/30 04:29:26;;;;;;;3.67;1.10;;;14.90;99.90;;;;;;4592541;19;20028;-77
2023/12/30 04:31:00;;;;;;;1.42;0.68;;;14.90;99.90;;;;;;4591543;19;19999;-76
2023/12/30 04:32:34;;;;;;;2.97;1.25;;;14.90;99.90;;;;;;4592400;19;19994;-78
2023/12/30 04:34:15;;;;;;;1.67;0.90;;;14.90;99.90;;;;;;4591396;19;20014;-78
2023/12/30 04:35:49;;;;;;;1.90;0.85;;;14.90;99.90;;;;;;4591585;19;20002;-77
2023/12/30 04:37:23;;;;;;;1.00;0.68;;;15.00;99.90;;;;;;4592006;19;20009;-78
2023/12/30 04:38:58;;;;;;;1.40;0.75;;;15.00;99.90;;;;;;4592407;19;20006;-77
2023/12/30 04:40:35;;;;;;;1.80;1.00;;;15.00;99.90;;;;;;4591332;19;20436;-77
2023/12/30 04:42:09;;;;;;;0.52;0.47;;;15.10;99.90;;;;;;4591977;19;20422;-77
2023/12/30 04:43:44;;;;;;;1.00;0.60;;;15.20;99.90;;;;;;4592338;19;20033;-78
2023/12/30 04:45:18;;;;;;;1.10;0.60;;;15.10;99.90;;;;;;4591146;19;20002;-77
2023/12/30 04:46:52;;;;;;;2.33;0.82;;;15.10;99.90;;;;;;4591527;19;20032;-78
2023/12/30 04:48:27;;;;;;;2.92;1.20;;;15.20;99.90;;;;;;4592116;19;20002;-77
2023/12/30 04:50:03;;;;;;;1.25;0.80;;;15.20;99.90;;;;;;4592063;19;20426;-77
2023/12/30 04:51:36;;;;;;;1.40;0.70;;;15.20;99.90;;;;;;4590765;19;20003;-77
2023/12/30 04:53:13;;;;;;;0.90;0.73;;;15.20;99.90;;;;;;4592057;19;20010;-77
2023/12/30 04:54:48;;;;;;;2.15;0.88;;;15.20;99.90;;;;;;4591710;19;20007;-78
2023/12/30 04:56:23;;;;;;;1.90;0.90;;;15.20;99.90;;;;;;4592236;19;20002;-77
2023/12/30 04:58:02;;;;;;;2.33;1.05;;;15.30;99.90;;;;;;4588640;19;20050;-77
2023/12/30 04:59:36;;;;;;;1.98;1.00;;;15.30;99.90;;;;;;4591361;19;20032;-77
2023/12/30 05:01:11;;;;;;;1.90;0.98;;;15.30;99.90;;;;;;4589685;19;20003;-77
2023/12/30 05:02:46;;;;;;;2.03;1.08;;;15.30;99.90;;;;;;4588667;19;20027;-77
2023/12/30 05:04:20;;;;;;;2.47;1.20;;;15.30;99.90;;;;;;4589168;19;20002;-77
2023/12/30 05:05:57;;;;;;;1.83;0.82;;;15.30;99.90;;;;;;4587712;19;20018;-77
2023/12/30 05:07:32;;;;;;;1.65;0.70;;;15.30;99.90;;;;;;4588462;19;20749;-78
2023/12/30 05:09:06;;;;;;;2.05;0.65;;;15.30;99.90;;;;;;4589701;19;20003;-78
2023/12/30 05:10:40;;;;;;;1.48;0.60;;;15.30;99.90;;;;;;4589163;19;20425;-77
2023/12/30 05:12:15;;;;;;;1.63;1.00;;;15.30;99.90;;;;;;4588347;19;20025;-79
2023/12/30 05:13:49;;;;;;;14.60;13.10;;;15.30;99.90;;;;;;4589199;19;20051;-79
2023/12/30 05:15:23;;;;;;;2.78;1.92;;;15.40;99.90;;;;;;4589169;19;20013;-78
2023/12/30 05:16:58;;;;;;;1.63;1.00;;;15.40;99.90;;;;;;4591201;19;20013;-76
2023/12/30 05:18:32;;;;;;;1.17;0.80;;;15.40;99.90;;;;;;4592060;19;20006;-78
2023/12/30 05:20:08;;;;;;;1.85;0.90;;;15.50;99.90;;;;;;4591621;19;20316;-77
2023/12/30 05:21:49;;;;;;;2.13;1.38;;;15.50;99.90;;;;;;4591544;19;20032;-77
2023/12/30 05:23:22;;;;;;;2.47;1.05;;;15.50;99.90;;;;;;4591910;19;20039;-77
2023/12/30 05:24:56;;;;;;;6.65;3.10;;;15.60;99.90;;;;;;4591840;19;20296;-76
2023/12/30 05:26:34;;;;;;;9.10;4.75;;;15.60;99.90;;;;;;4591384;19;20022;-77
2023/12/30 05:28:08;;;;;;;8.82;4.95;;;15.60;99.90;;;;;;4596436;19;20432;-78
2023/12/30 05:29:43;;;;;;;7.40;3.55;;;15.60;99.90;;;;;;4594850;19;19999;-78
2023/12/30 05:31:18;;;;;;;9.45;4.25;;;15.60;99.90;;;;;;4595954;19;20016;-77
2023/12/30 05:32:52;;;;;;;9.18;4.25;;;15.60;99.90;;;;;;4596052;19;19998;-77
2023/12/30 05:34:26;;;;;;;6.38;3.58;;;15.60;99.90;;;;;;4596388;19;20005;-77
2023/12/30 05:36:01;;;;;;;7.47;4.07;;;15.20;99.90;;;;;;4596001;19;20094;-78
2023/12/30 05:37:35;;;;;;;5.10;2.97;;;14.70;99.90;;;;;;4594959;19;20413;-77
2023/12/30 05:39:09;;;;;;;6.25;3.22;;;14.30;99.90;;;;;;4596235;19;20009;-77
2023/12/30 05:40:45;;;;;;;6.60;3.63;;;14.10;99.90;;;;;;4595938;19;20010;-77
2023/12/30 05:42:19;;;;;;;8.45;4.45;;;13.70;99.90;;;;;;4594553;19;20006;-77
2023/12/30 05:43:53;;;;;;;7.85;5.75;;;13.60;99.90;;;;;;4595742;19;19999;-78
2023/12/30 05:45:29;;;;;;;8.13;4.93;;;13.40;99.90;;;;;;4595855;19;20007;-77
2023/12/30 05:47:02;;;;;;;9.70;5.80;;;13.20;99.90;;;;;;4595491;19;20009;-77
2023/12/30 05:48:37;;;;;;;9.00;5.10;;;13.00;99.90;;;;;;4596065;19;19998;-77
2023/12/30 05:50:13;;;;;;;8.47;5.53;;;12.90;99.90;;;;;;4594568;19;20006;-78
2023/12/30 05:51:47;;;;;;;9.10;4.60;;;12.90;99.90;;;;;;4594385;19;20002;-77
2023/12/30 05:53:21;;;;;;;13.13;6.20;;;12.80;99.90;;;;;;4595410;19;20002;-77
2023/12/30 05:54:56;;;;;;;11.63;6.13;;;12.70;99.90;;;;;;4595178;19;20013;-76
2023/12/30 05:56:30;;;;;;;12.30;7.40;;;12.60;99.90;;;;;;4594340;19;20002;-76
2023/12/30 05:58:06;;;;;;;9.33;5.37;;;12.50;99.90;;;;;;4593717;19;19999;-76
2023/12/30 05:59:42;;;;;;;14.50;9.23;;;12.50;99.90;;;;;;4595620;19;20006;-78
2023/12/30 06:01:15;;;;;;;14.97;11.63;;;12.50;99.90;;;;;;4594181;19;20003;-78
2023/12/30 06:02:51;;;;;;;10.70;7.33;;;12.40;99.90;;;;;;4594450;19;20002;-80
2023/12/30 06:04:27;;;;;;;7.70;4.60;;;12.40;99.90;;;;;;4595109;19;20086;-79
2023/12/30 06:06:01;;;;;;;9.13;4.50;;;12.30;99.90;;;;;;4595423;19;20374;-77
2023/12/30 06:07:38;;;;;;;6.63;3.63;;;12.30;99.90;;;;;;4594248;19;20036;-77
2023/12/30 06:09:14;;;;;;;6.33;3.13;;;12.30;99.90;;;;;;4595338;19;20011;-75
2023/12/30 06:10:51;;;;;;;7.13;3.37;;;12.30;99.90;;;;;;4595521;19;20452;-78
2023/12/30 06:12:27;;;;;;;7.03;3.10;;;12.20;99.90;;;;;;4595704;19;20006;-79
2023/12/30 06:14:02;;;;;;;6.50;3.20;;;12.20;99.90;;;;;;4595746;19;20097;-81
2023/12/30 06:15:37;;;;;;;8.03;3.90;;;12.20;99.90;;;;;;4594038;19;20374;-78
2023/12/30 06:17:11;;;;;;;12.83;10.03;;;12.30;99.90;;;;;;4594349;19;20014;-78
2023/12/30 06:18:46;;;;;;;13.90;10.67;;;12.30;99.90;;;;;;4595138;19;20066;-81
2023/12/30 06:20:21;;;;;;;13.27;10.53;;;12.30;99.90;;;;;;4593832;19;20011;-82
2023/12/30 06:21:56;;;;;;;11.60;8.07;;;12.30;99.90;;;;;;4593760;19;20002;-79
2023/12/30 06:23:32;;;;;;;5.80;3.23;;;12.30;99.90;;;;;;4594805;19;20007;-77
2023/12/30 06:25:06;;;;;;;4.47;2.20;;;12.20;99.90;;;;;;4595046;19;20002;-78
2023/12/30 06:26:40;;;;;;;6.97;3.33;;;12.30;99.90;;;;;;4595086;19;20002;-78
2023/12/30 06:28:16;;;;;;;4.77;2.70;;;12.30;99.90;;;;;;4593990;19;20429;-77
2023/12/30 06:29:51;;;;;;;4.83;3.10;;;12.30;99.90;;;;;;4593898;19;20528;-77
2023/12/30 06:31:25;;;;;;;6.43;3.23;;;12.30;99.90;;;;;;4594463;19;20316;-80
2023/12/30 06:33:06;;;;;;;7.20;5.27;;;12.30;99.90;;;;;;4594871;19;20094;-79
2023/12/30 06:34:40;;;;;;;6.43;4.33;;;12.20;99.90;;;;;;4594963;19;20290;-76
2023/12/30 06:36:24;;;;;;;5.60;3.53;;;12.30;99.90;;;;;;4593480;19;19998;-78
2023/12/30 06:38:00;;;;;;;5.67;3.40;;;12.30;99.90;;;;;;4592077;19;20488;-75
2023/12/30 06:39:33;;;;;;;5.37;3.30;;;12.20;99.90;;;;;;4593195;19;19999;-78
2023/12/30 06:41:08;;;;;;;5.43;3.60;;;12.20;99.90;;;;;;4593641;19;20467;-79
2023/12/30 06:42:45;;;;;;;6.47;4.60;;;12.30;99.90;;;;;;4594650;19;20010;-78
2023/12/30 06:44:20;;;;;;;9.07;5.60;;;12.20;99.90;;;;;;4593694;19;20488;-80
2023/12/30 06:45:54;;;;;;;9.40;5.80;;;12.20;99.90;;;;;;4594334;19;19998;-78
2023/12/30 06:47:30;;;;;;;9.37;6.60;;;12.10;99.90;;;;;;4593880;19;20003;-79
2023/12/30 06:49:04;;;;;;;10.67;7.07;;;12.10;99.90;;;;;;4594759;19;20062;-80
2023/12/30 06:50:38;;;;;;;8.00;5.53;;;12.10;99.90;;;;;;4593481;19;20437;-80
2023/12/30 06:52:13;;;;;;;14.90;9.23;;;12.00;99.90;;;;;;4594238;19;20010;-79
2023/12/30 06:53:48;;;;;;;10.70;6.50;;;12.00;99.90;;;;;;4594514;19;20061;-78
2023/12/30 06:55:23;;;;;;;13.70;9.37;;;12.00;99.90;;;;;;4593852;19;19995;-78
2023/12/30 06:56:58;;;;;;;9.47;6.87;;;12.00;99.90;;;;;;4594085;19;20472;-78
2023/12/30 06:58:33;;;;;;;15.47;11.43;;;12.00;99.90;;;;;;4594356;19;20074;-80
2023/12/30 07:00:08;;;;;;;12.37;9.13;;;12.00;99.90;;;;;;4594198;19;20014;-80
2023/12/30 07:01:45;;;;;;;11.87;9.03;;;12.10;99.90;;;;;;4593018;19;20007;-80
2023/12/30 07:03:19;;;;;;;10.93;8.17;;;12.10;99.90;;;;;;4594255;19;20402;-79
2023/12/30 07:04:54;;;;;;;9.30;6.43;;;12.10;99.90;;;;;;4592867;19;20014;-77
2023/12/30 07:06:30;;;;;;;9.40;5.80;;;12.20;99.90;;;;;;4593972;19;20006;-79
2023/12/30 07:08:04;;;;;;;7.53;5.60;;;12.20;99.90;;;;;;4592756;19;20013;-78
2023/12/30 07:09:40;;;;;;;6.60;5.33;;;12.20;99.90;;;;;;4594448;19;20058;-78
2023/12/30 07:11:15;;;;;;;7.90;5.23;;;12.30;99.90;;;;;;4593084;19;20014;-78
2023/12/30 07:12:49;;;;;;;6.40;4.20;;;12.30;99.90;;;;;;4594036;19;20024;-78
2023/12/30 07:14:24;;;;;;;5.23;3.40;;;12.30;99.90;;;;;;4594017;19;19999;-78
2023/12/30 07:15:59;;;;;;;4.97;3.53;;;12.20;99.90;;;;;;4593008;19;20314;-78
2023/12/30 07:17:33;;;;;;;6.40;4.23;;;12.30;99.90;;;;;;4592949;19;20014;-76
2023/12/30 07:19:07;;;;;;;5.80;4.23;;;12.30;99.90;;;;;;4593929;19;20325;-78
2023/12/30 07:20:44;;;;;;;8.47;4.03;;;12.20;99.90;;;;;;4594676;19;20392;-79
2023/12/30 07:22:19;;;;;;;5.73;4.13;;;12.20;99.90;;;;;;4594100;19;20062;-79
2023/12/30 07:23:53;;;;;;;5.30;3.87;;;12.30;99.90;;;;;;4593928;19;20006;-79
2023/12/30 07:25:29;;;;;;;6.30;4.90;;;12.20;99.90;;;;;;4594081;19;20003;-80
2023/12/30 07:27:04;;;;;;;9.37;6.10;;;12.20;99.90;;;;;;4593272;19;20410;-80
2023/12/30 07:28:38;;;;;;;9.83;6.40;;;12.20;99.90;;;;;;4593702;19;20003;-75
2023/12/30 07:30:14;;;;;;;6.93;4.37;;;12.20;99.90;;;;;;4593951;19;20005;-75
2023/12/30 07:31:49;;;;;;;4.90;3.37;;;12.10;99.90;;;;;;4593983;19;20002;-75
2023/12/30 07:33:24;;;;;;;4.53;3.00;;;12.10;99.90;;;;;;4593682;19;19998;-75
2023/12/30 07:34:59;;;;;;;7.03;4.63;;;12.00;99.90;;;;;;4593293;19;20012;-76
2023/12/30 07:36:34;;;;;;;10.47;6.90;;;12.00;99.90;;;;;;4593592;19;20073;-76
2023/12/30 07:38:08;;;;;;;10.23;6.53;;;12.10;99.90;;;;;;4593728;19;20401;-75
2023/12/30 07:39:43;;;;;;;11.33;7.07;;;12.00;99.90;;;;;;4594219;19;20307;-75
2023/12/30 07:41:17;;;;;;;12.03;7.10;;;12.00;99.90;;;;;;4593493;19;20094;-76
2023/12/30 07:42:51;;;;;;;8.50;5.17;;;12.00;99.90;;;;;;4593355;19;20019;-76
2023/12/30 07:44:29;;;;;;;10.33;5.77;;;11.90;99.90;;;;;;4593733;19;20439;-75
2023/12/30 07:46:04;;;;;;;11.27;7.53;;;11.90;99.90;;;;;;4592096;19;20327;-75
2023/12/30 07:47:39;;;;;;;7.10;4.33;;;11.90;99.90;;;;;;4591081;19;20444;-75
2023/12/30 07:49:17;;;;;;;9.80;5.83;;;12.00;99.90;;;;;;4593357;19;20007;-75
2023/12/30 07:50:52;;;;;;;7.83;4.57;;;12.00;99.90;;;;;;4591095;19;20443;-75
2023/12/30 07:52:26;;;;;;;8.87;4.97;;;12.00;99.90;;;;;;4593136;19;20011;-75
2023/12/30 07:54:04;;;;;;;11.40;6.13;;;11.90;99.90;;;;;;4593259;19;20010;-75
2023/12/30 07:55:38;;;;;;;11.27;6.80;;;11.90;99.90;;;;;;4592624;19;20002;-75
2023/12/30 07:57:12;;;;;;;8.50;5.07;;;12.00;99.90;;;;;;4592882;19;20006;-76
2023/12/30 07:58:47;;;;;;;7.07;5.00;;;11.90;99.90;;;;;;4593548;19;20027;-76
2023/12/30 08:00:23;;;;;;;8.27;5.30;;;11.80;99.90;;;;;;4592077;19;20007;-76
2023/12/30 08:01:57;;;;;;;7.73;4.93;;;11.80;99.90;;;;;;4592619;19;20077;-75
2023/12/30 08:03:32;;;;;;;6.30;4.63;;;11.80;99.90;;;;;;4593396;19;20305;-75
2023/12/30 08:05:06;;;;;;;6.83;4.37;;;11.80;99.90;;;;;;4593244;19;20034;-75
2023/12/30 08:06:41;;;;;;;5.33;3.80;;;12.00;99.90;;;;;;4593073;19;20010;-75
2023/12/30 08:08:17;;;;;;;4.80;3.57;;;12.10;99.90;;;;;;4593292;19;20520;-75
2023/12/30 08:09:51;;;;;;;5.33;2.80;;;12.30;99.90;;;;;;4592913;19;20006;-75
2023/12/30 08:11:27;;;;;;;5.70;3.40;;;12.50;99.90;;;;;;4593194;19;20422;-75
2023/12/30 08:13:03;;;;;;;6.13;3.73;;;12.70;99.90;;;;;;4592945;19;20010;-75
2023/12/30 08:14:38;;;;;;;9.53;4.67;;;12.80;99.90;;;;;;4592825;19;20080;-75
2023/12/30 08:16:11;;;;;;;9.07;5.50;;;12.90;99.90;;;;;;4593057;19;20432;-75
2023/12/30 08:17:49;;;;;;;10.03;4.83;;;13.00;99.90;;;;;;4592178;19;20425;-76
2023/12/30 08:19:23;;;;;;;10.10;5.60;;;13.10;99.90;;;;;;4592741;19;19998;-75
2023/12/30 08:20:58;;;;;;;9.57;5.70;;;13.20;99.90;;;;;;4592745;19;20108;-75
2023/12/30 08:22:34;;;;;;;8.47;4.43;;;13.20;99.90;;;;;;4592759;19;20007;-74
2023/12/30 08:24:10;;;;;;;9.70;4.90;;;13.40;99.90;;;;;;4592895;19;20010;-78
2023/12/30 08:25:44;;;;;;;6.40;4.13;;;13.50;99.90;;;;;;4592698;19;20033;-74
2023/12/30 08:27:19;;;;;;;7.00;4.27;;;13.50;99.90;;;;;;4590950;19;20009;-74
2023/12/30 08:28:54;;;;;;;7.68;3.95;;;13.60;99.90;;;;;;4591235;19;20473;-78
2023/12/30 08:30:29;;;;;;;7.68;3.70;;;13.70;99.90;;;;;;4592269;19;20009;-79
2023/12/30 08:32:06;;;;;;;7.90;3.57;;;13.70;99.90;;;;;;4592784;19;20339;-80